createdAt,value
2022-09-12T00:01:08.034Z,100611.53
2022-09-12T00:06:01.235Z,100576.00
2022-09-12T00:10:55.794Z,100599.13
2022-09-12T00:15:48.927Z,100577.25
2022-09-12T00:20:43.548Z,100582.25
2022-09-12T00:25:41.857Z,100578.66
2022-09-12T00:30:36.336Z,100564.00
2022-09-12T00:35:29.493Z,100539.44
2022-09-12T00:40:23.348Z,100563.31
2022-09-12T00:45:24.660Z,100473.81
2022-09-12T00:50:19.756Z,100587.50
2022-09-12T00:55:16.727Z,100594.63
2022-09-12T01:00:15.168Z,100594.66
2022-09-12T01:05:09.821Z,100553.75
2022-09-12T01:10:06.717Z,100588.41
2022-09-12T01:15:00.794Z,100528.16
2022-09-12T01:20:30.698Z,100501.25
2022-09-12T01:25:32.485Z,100512.47
2022-09-12T01:30:43.718Z,100588.78
2022-09-12T01:35:46.069Z,100583.69
2022-09-12T01:40:49.268Z,100591.97
2022-09-12T01:45:47.143Z,100591.44
2022-09-12T01:50:47.805Z,100592.75
2022-09-12T01:55:45.291Z,100563.66
2022-09-12T02:00:45.923Z,100578.69
2022-09-12T02:05:44.520Z,100569.13
2022-09-12T02:10:45.122Z,100589.44
2022-09-12T02:15:41.519Z,100593.38
2022-09-12T02:20:54.624Z,100578.53
2022-09-12T02:25:52.575Z,100550.44
2022-09-12T02:30:54.238Z,100562.47
2022-09-12T02:35:54.387Z,100560.47
2022-09-12T02:40:47.578Z,100581.94
2022-09-12T02:45:41.011Z,100543.84
2022-09-12T02:50:34.530Z,100575.06
2022-09-12T02:55:32.213Z,100524.47
2022-09-12T03:00:26.343Z,100560.94
2022-09-12T03:05:30.651Z,100580.59
2022-09-12T03:10:33.160Z,100588.69
2022-09-12T03:15:44.319Z,100579.69
2022-09-12T03:20:47.355Z,100587.78
2022-09-12T03:25:48.455Z,100529.28
2022-09-12T03:30:43.246Z,100593.41
2022-09-12T03:35:36.513Z,100583.47
2022-09-12T03:40:29.641Z,100592.00
2022-09-12T03:45:24.142Z,100593.88
2022-09-12T03:50:18.155Z,100540.22
2022-09-12T03:55:15.584Z,100601.88
2022-09-12T04:00:17.693Z,100607.63
2022-09-12T04:05:14.840Z,100611.44
2022-09-12T04:10:11.153Z,100547.22
2022-09-12T04:15:05.335Z,100617.19
2022-09-12T04:19:58.527Z,100620.13
2022-09-12T04:24:53.062Z,100635.53
2022-09-12T04:29:46.339Z,100650.84
2022-09-12T04:34:39.745Z,100653.59
2022-09-12T04:39:32.882Z,100631.63
2022-09-12T04:44:27.486Z,100674.75
2022-09-12T04:49:20.851Z,100554.50
2022-09-12T04:54:17.462Z,100627.44
2022-09-12T04:59:12.095Z,100691.28
2022-09-12T05:04:07.044Z,100663.09
2022-09-12T05:09:02.029Z,100689.47
2022-09-12T05:13:55.561Z,100691.50
2022-09-12T05:18:49.120Z,100664.50
2022-09-12T05:23:44.177Z,100572.34
2022-09-12T05:28:40.579Z,100690.63
2022-09-12T05:33:34.886Z,100692.06
2022-09-12T05:38:29.181Z,100684.91
2022-09-12T05:43:26.553Z,100662.03
2022-09-12T05:48:19.763Z,100693.88
2022-09-12T05:53:16.032Z,100696.44
2022-09-12T05:58:09.752Z,100702.44
2022-09-12T06:03:06.951Z,100646.53
2022-09-12T06:08:00.092Z,100673.97
2022-09-12T06:12:54.028Z,100703.16
2022-09-12T06:17:51.506Z,100688.22
2022-09-12T06:22:46.319Z,100674.69
2022-09-12T06:27:39.389Z,100699.94
2022-09-12T06:32:32.719Z,100680.31
2022-09-12T06:37:26.430Z,100701.69
2022-09-12T06:42:21.101Z,100690.66
2022-09-12T06:47:23.851Z,100680.94
2022-09-12T06:52:18.149Z,100682.63
2022-09-12T06:57:11.252Z,100684.97
2022-09-12T07:02:05.889Z,100671.91
2022-09-12T07:06:59.661Z,100690.41
2022-09-12T07:11:53.214Z,100687.06
2022-09-12T07:16:46.350Z,100599.31
2022-09-12T07:21:41.584Z,100662.47
2022-09-12T07:26:35.722Z,100695.47
2022-09-12T07:31:30.138Z,100698.72
2022-09-12T07:36:25.521Z,100701.50
2022-09-12T07:41:23.416Z,100673.25
2022-09-12T07:46:16.845Z,100695.88
2022-09-12T07:51:12.551Z,100685.94
2022-09-12T07:56:14.529Z,100634.63
2022-09-12T08:01:12.927Z,100632.53
2022-09-12T08:06:06.996Z,100679.09
2022-09-12T08:11:02.642Z,100674.31
2022-09-12T08:15:59.858Z,100667.06
2022-09-12T08:20:59.383Z,100668.25
2022-09-12T08:25:53.654Z,100582.41
2022-09-12T08:30:46.911Z,100656.72
2022-09-12T08:35:40.100Z,100607.13
2022-09-12T08:40:51.875Z,100543.28
2022-09-12T08:45:58.115Z,100555.75
2022-09-12T08:50:54.722Z,100587.97
2022-09-12T08:55:55.059Z,100518.69
2022-09-12T09:01:10.145Z,100471.56
2022-09-12T09:06:14.254Z,100556.22
2022-09-12T09:11:23.839Z,100595.66
2022-09-12T09:16:25.763Z,100532.88
2022-09-12T09:21:24.954Z,100586.03
2022-09-12T09:26:26.816Z,100586.25
2022-09-12T09:31:25.655Z,100519.53
2022-09-12T09:36:24.117Z,100558.72
2022-09-12T09:41:43.891Z,100550.13
2022-09-12T09:46:37.340Z,100571.47
2022-09-12T09:51:35.813Z,100530.63
2022-09-12T09:56:33.937Z,100519.75
2022-09-12T10:01:30.564Z,100564.06
2022-09-12T10:06:32.518Z,100463.75
2022-09-12T10:11:33.834Z,100564.91
2022-09-12T10:16:29.055Z,100565.94
2022-09-12T10:21:34.866Z,100562.41
2022-09-12T10:26:34.077Z,100500.00
2022-09-12T10:31:29.238Z,100549.13
2022-09-12T10:36:23.777Z,100534.81
2022-09-12T10:41:17.176Z,100435.63
2022-09-12T10:46:33.677Z,100491.38
2022-09-12T10:51:30.527Z,100433.31
2022-09-12T10:56:30.680Z,100536.88
2022-09-12T11:01:40.397Z,100459.88
2022-09-12T11:06:50.690Z,100460.78
2022-09-12T11:11:58.828Z,100483.78
2022-09-12T11:17:04.319Z,100527.06
2022-09-12T11:22:21.306Z,100537.53
2022-09-12T11:27:29.462Z,100466.03
2022-09-12T11:32:49.419Z,100528.81
2022-09-12T11:37:57.306Z,100503.53
2022-09-12T11:42:53.956Z,100516.03
2022-09-12T11:47:56.442Z,100519.31
2022-09-12T11:52:51.619Z,100490.94
2022-09-12T11:57:46.929Z,100481.19
2022-09-12T12:02:49.497Z,100407.72
2022-09-12T12:07:52.408Z,100481.84
2022-09-12T12:12:45.699Z,100391.63
2022-09-12T12:17:40.238Z,100427.59
2022-09-12T12:22:33.839Z,100480.16
2022-09-12T12:27:47.509Z,100450.63
2022-09-12T12:32:40.695Z,100464.88
2022-09-12T12:37:58.363Z,100460.63
2022-09-12T12:43:04.800Z,100423.88
2022-09-12T12:48:04.053Z,100459.63
2022-09-12T12:53:05.367Z,100448.91
2022-09-12T12:58:01.675Z,100444.34
2022-09-12T13:02:59.860Z,100442.81
2022-09-12T13:07:57.715Z,100369.84
2022-09-12T13:12:54.451Z,100377.97
2022-09-12T13:17:52.146Z,100414.38
2022-09-12T13:22:50.092Z,100424.81
2022-09-12T13:28:01.709Z,100379.75
2022-09-12T13:32:59.509Z,100434.50
2022-09-12T13:38:00.218Z,100448.03
2022-09-12T13:43:07.224Z,100451.97
2022-09-12T13:48:04.574Z,100409.75
2022-09-12T13:53:01.610Z,100458.09
2022-09-12T13:57:59.892Z,100465.50
2022-09-12T14:03:14.363Z,100423.25
2022-09-12T14:08:10.542Z,100411.16
2022-09-12T14:13:12.023Z,100467.44
2022-09-12T14:18:08.894Z,100394.31
2022-09-12T14:23:04.851Z,100406.75
2022-09-12T14:28:00.348Z,100466.53
2022-09-12T14:33:18.131Z,100417.25
2022-09-12T14:38:25.827Z,100440.38
2022-09-12T14:43:40.883Z,100465.38
2022-09-12T14:48:37.561Z,100443.34
2022-09-12T14:53:38.619Z,100439.66
2022-09-12T14:58:33.743Z,100426.72
2022-09-12T15:03:33.174Z,100448.84
2022-09-12T15:08:27.315Z,100349.38
2022-09-12T15:13:25.975Z,100419.38
2022-09-12T15:18:21.542Z,100402.97
2022-09-12T15:23:32.311Z,100479.44
2022-09-12T15:28:26.980Z,100477.00
2022-09-12T15:33:24.848Z,100485.50
2022-09-12T15:38:21.050Z,100421.72
2022-09-12T15:43:20.397Z,100501.38
2022-09-12T15:48:15.776Z,100471.84
2022-09-12T15:53:16.351Z,100457.59
2022-09-12T15:58:10.327Z,100402.16
2022-09-12T16:03:03.751Z,100490.22
2022-09-12T16:08:02.181Z,100514.28
2022-09-12T16:12:57.985Z,100393.06
2022-09-12T16:17:52.391Z,100459.53
2022-09-12T16:22:49.614Z,100531.31
2022-09-12T16:27:47.798Z,100519.25
2022-09-12T16:32:42.694Z,100539.75
2022-09-12T16:37:40.540Z,100496.66
2022-09-12T16:42:41.821Z,100411.91
2022-09-12T16:47:39.518Z,100523.47
2022-09-12T16:52:35.500Z,100547.91
2022-09-12T17:02:36.098Z,100444.06
2022-09-12T17:07:29.691Z,100530.28
2022-09-12T17:12:24.790Z,100572.22
2022-09-12T17:17:18.089Z,100595.38
2022-09-12T17:22:11.325Z,100615.44
2022-09-12T17:27:04.698Z,100636.75
2022-09-12T17:31:59.692Z,100595.50
2022-09-12T17:36:55.519Z,100561.38
2022-09-12T17:41:51.443Z,100527.25
2022-09-12T17:46:55.356Z,100553.13
2022-09-12T17:51:55.173Z,100682.59
2022-09-12T17:56:49.891Z,100667.88
2022-09-12T18:02:00.877Z,100616.53
2022-09-12T18:07:00.506Z,100576.22
2022-09-12T18:11:54.661Z,100505.22
2022-09-12T18:16:50.781Z,100657.69
2022-09-12T18:22:57.013Z,100648.91
2022-09-12T18:29:15.331Z,100560.16
2022-09-12T18:41:33.244Z,100652.97
2022-09-12T18:46:31.660Z,100568.47
2022-09-12T18:51:36.110Z,100472.78
2022-09-12T18:56:32.971Z,100644.00
2022-09-12T19:01:29.876Z,100532.38
2022-09-12T19:06:46.762Z,100492.72
2022-09-12T19:11:51.605Z,100532.19
2022-09-12T19:16:50.909Z,100660.66
2022-09-12T19:21:44.818Z,100638.31
2022-09-12T19:26:39.038Z,100528.75
2022-09-12T19:31:33.086Z,100530.75
2022-09-12T19:36:44.348Z,100532.75
2022-09-12T19:41:39.789Z,100589.69
2022-09-12T19:46:33.364Z,100679.50
2022-09-12T19:51:28.040Z,100568.13
2022-09-12T19:56:22.691Z,100558.56
2022-09-12T20:01:19.023Z,100546.69
2022-09-12T20:06:14.600Z,100560.56
2022-09-12T20:11:10.018Z,100648.22
2022-09-12T20:16:21.289Z,100607.53
2022-09-12T20:21:18.288Z,100560.72
2022-09-12T20:26:15.200Z,100640.72
2022-09-12T20:31:12.047Z,100706.38
2022-09-12T20:36:10.853Z,100580.47
2022-09-12T20:41:08.479Z,100704.88
2022-09-12T20:46:06.604Z,100608.03
2022-09-12T20:51:03.074Z,100724.97
2022-09-12T20:55:56.403Z,100584.09
2022-09-12T21:00:50.644Z,100732.69
2022-09-12T21:05:46.071Z,100692.94
2022-09-12T21:10:41.695Z,100676.19
2022-09-12T21:15:35.188Z,100736.44
2022-09-12T21:20:30.491Z,100742.59
2022-09-12T21:25:25.517Z,100753.97
2022-09-12T21:31:13.732Z,100750.88
2022-09-12T21:36:29.502Z,100736.53
2022-09-12T21:41:24.079Z,100627.16
2022-09-12T21:46:18.725Z,100762.84
2022-09-12T21:51:11.994Z,100762.31
2022-09-12T21:56:07.197Z,100756.00
2022-09-12T22:02:25.471Z,100598.00
2022-09-12T22:08:11.154Z,100686.66
2022-09-12T22:13:24.309Z,100782.06
2022-09-12T22:18:17.269Z,100737.78
2022-09-12T22:23:30.677Z,100772.00
2022-09-12T22:28:24.605Z,100759.34
2022-09-12T22:33:17.715Z,100658.41
2022-09-12T22:38:12.021Z,100774.03
2022-09-12T22:43:09.266Z,100750.44
2022-09-12T22:48:05.058Z,100708.09
2022-09-12T22:53:01.443Z,100709.00
2022-09-12T22:57:55.763Z,100773.41
2022-09-12T23:02:48.733Z,100714.09
2022-09-12T23:07:41.802Z,100712.88
2022-09-12T23:12:34.783Z,100666.34
2022-09-12T23:17:29.049Z,100786.84
2022-09-12T23:22:22.002Z,100788.69
2022-09-12T23:27:15.059Z,100638.50
2022-09-12T23:32:08.150Z,100615.31
2022-09-12T23:37:03.286Z,100675.97
2022-09-12T23:41:57.871Z,100775.75
2022-09-12T23:46:50.768Z,100781.78
2022-09-12T23:51:44.547Z,100789.41
2022-09-12T23:56:38.908Z,100789.16
